sensor_id;sensor_type;location;lat;lon;timestamp;temperature;humidity
9223;DHT22;7557;51.698;3.942;2024-01-15T00:01:03;3.90;99.90
9223;DHT22;7557;51.698;3.942;2024-01-15T00:03:31;3.90;99.90
9223;DHT22;7557;51.698;3.942;2024-01-15T00:05:58;4.00;99.90
9223;DHT22;7557;51.698;3.942;2024-01-15T00:08:26;4.00;99.90
9223;DHT22;7557;51.698;3.942;2024-01-15T00:10:53;4.10;99.90
9223;DHT22;7557;51.698;3.942;2024-01-15T00:13:21;4.20;99.90
9223;DHT22;7557;51.698;3.942;2024-01-15T00:15:48;4.20;99.90
9223;DHT22;7557;51.698;3.942;2024-01-15T00:18:17;4.30;99.90
9223;DHT22;7557;51.698;3.942;2024-01-15T00:20:45;4.30;99.90
9223;DHT22;7557;51.698;3.942;2024-01-15T00:23:13;4.30;99.90
9223;DHT22;7557;51.698;3.942;2024-01-15T00:25:41;4.30;99.90
9223;DHT22;7557;51.698;3.942;2024-01-15T00:28:08;4.30;99.90
9223;DHT22;7557;51.698;3.942;2024-01-15T00:30:36;4.20;99.90
9223;DHT22;7557;51.698;3.942;2024-01-15T00:33:04;4.20;99.90
9223;DHT22;7557;51.698;3.942;2024-01-15T00:35:33;4.10;99.90
9223;DHT22;7557;51.698;3.942;2024-01-15T00:38:00;4.00;99.90
9223;DHT22;7557;51.698;3.942;2024-01-15T00:40:28;4.00;99.90
9223;DHT22;7557;51.698;3.942;2024-01-15T00:42:57;4.00;99.90
9223;DHT22;7557;51.698;3.942;2024-01-15T00:45:25;4.10;99.90
9223;DHT22;7557;51.698;3.942;2024-01-15T00:47:52;4.20;99.90
9223;DHT22;7557;51.698;3.942;2024-01-15T00:50:22;4.20;99.90
9223;DHT22;7557;51.698;3.942;2024-01-15T00:52:52;4.30;99.90
9223;DHT22;7557;51.698;3.942;2024-01-15T00:55:20;4.40;99.90
9223;DHT22;7557;51.698;3.942;2024-01-15T00:57:47;4.40;99.90
9223;DHT22;7557;51.698;3.942;2024-01-15T01:00:15;4.50;99.90
9223;DHT22;7557;51.698;3.942;2024-01-15T01:02:43;4.50;99.90
9223;DHT22;7557;51.698;3.942;2024-01-15T01:05:10;4.60;99.90
9223;DHT22;7557;51.698;3.942;2024-01-15T01:07:38;4.60;99.90
9223;DHT22;7557;51.698;3.942;2024-01-15T01:10:07;4.70;99.90
9223;DHT22;7557;51.698;3.942;2024-01-15T01:12:35;4.60;99.90
9223;DHT22;7557;51.698;3.942;2024-01-15T01:15:03;4.60;99.90
9223;DHT22;7557;51.698;3.942;2024-01-15T01:17:31;4.60;99.90
9223;DHT22;7557;51.698;3.942;2024-01-15T01:19:58;4.60;99.90
9223;DHT22;7557;51.698;3.942;2024-01-15T01:22:25;4.60;99.90
9223;DHT22;7557;51.698;3.942;2024-01-15T01:24:53;4.40;99.90
9223;DHT22;7557;51.698;3.942;2024-01-15T01:27:22;4.10;99.90
9223;DHT22;7557;51.698;3.942;2024-01-15T01:29:49;3.90;99.90
9223;DHT22;7557;51.698;3.942;2024-01-15T01:32:17;3.90;99.90
9223;DHT22;7557;51.698;3.942;2024-01-15T01:34:45;3.80;99.90
9223;DHT22;7557;51.698;3.942;2024-01-15T01:37:13;3.80;99.90
9223;DHT22;7557;51.698;3.942;2024-01-15T01:39:42;3.90;99.90
9223;DHT22;7557;51.698;3.942;2024-01-15T01:42:10;4.00;99.90
9223;DHT22;7557;51.698;3.942;2024-01-15T01:44:39;4.00;99.90
9223;DHT22;7557;51.698;3.942;2024-01-15T01:47:07;4.10;99.90
9223;DHT22;7557;51.698;3.942;2024-01-15T01:49:35;4.10;99.90
9223;DHT22;7557;51.698;3.942;2024-01-15T01:52:05;4.00;99.90
9223;DHT22;7557;51.698;3.942;2024-01-15T01:54:34;4.00;99.90
9223;DHT22;7557;51.698;3.942;2024-01-15T01:57:03;4.00;99.90
9223;DHT22;7557;51.698;3.942;2024-01-15T01:59:31;4.00;99.90
9223;DHT22;7557;51.698;3.942;2024-01-15T02:02:01;4.00;99.90
9223;DHT22;7557;51.698;3.942;2024-01-15T02:04:30;4.10;99.90
9223;DHT22;7557;51.698;3.942;2024-01-15T02:06:59;4.10;99.90
9223;DHT22;7557;51.698;3.942;2024-01-15T02:09:26;4.10;99.90
9223;DHT22;7557;51.698;3.942;2024-01-15T02:11:54;4.00;99.90
9223;DHT22;7557;51.698;3.942;2024-01-15T02:14:22;4.00;99.90
9223;DHT22;7557;51.698;3.942;2024-01-15T02:16:49;3.90;99.90
9223;DHT22;7557;51.698;3.942;2024-01-15T02:19:18;4.00;99.90
9223;DHT22;7557;51.698;3.942;2024-01-15T02:21:46;4.00;99.90
9223;DHT22;7557;51.698;3.942;2024-01-15T02:24:15;4.10;99.90
9223;DHT22;7557;51.698;3.942;2024-01-15T02:26:43;4.10;99.90
9223;DHT22;7557;51.698;3.942;2024-01-15T02:29:11;4.10;99.90
9223;DHT22;7557;51.698;3.942;2024-01-15T02:31:39;4.10;99.90
9223;DHT22;7557;51.698;3.942;2024-01-15T02:34:09;4.00;99.90
9223;DHT22;7557;51.698;3.942;2024-01-15T02:36:36;4.00;99.90
9223;DHT22;7557;51.698;3.942;2024-01-15T02:39:04;4.00;99.90
9223;DHT22;7557;51.698;3.942;2024-01-15T02:41:34;4.00;99.90
9223;DHT22;7557;51.698;3.942;2024-01-15T02:44:07;4.00;99.90
9223;DHT22;7557;51.698;3.942;2024-01-15T02:46:35;4.00;99.90
9223;DHT22;7557;51.698;3.942;2024-01-15T02:49:02;4.10;99.90
9223;DHT22;7557;51.698;3.942;2024-01-15T02:51:30;4.10;99.90
9223;DHT22;7557;51.698;3.942;2024-01-15T02:53:57;4.20;99.90
9223;DHT22;7557;51.698;3.942;2024-01-15T02:56:25;4.20;99.90
9223;DHT22;7557;51.698;3.942;2024-01-15T02:58:54;4.20;99.90
9223;DHT22;7557;51.698;3.942;2024-01-15T03:01:21;4.30;99.90
9223;DHT22;7557;51.698;3.942;2024-01-15T03:03:49;4.30;99.90
9223;DHT22;7557;51.698;3.942;2024-01-15T03:06:17;4.30;99.90
9223;DHT22;7557;51.698;3.942;2024-01-15T03:09:01;4.30;99.90
9223;DHT22;7557;51.698;3.942;2024-01-15T03:11:46;4.30;99.90
9223;DHT22;7557;51.698;3.942;2024-01-15T03:14:32;4.40;99.90
9223;DHT22;7557;51.698;3.942;2024-01-15T03:17:22;4.40;99.90
9223;DHT22;7557;51.698;3.942;2024-01-15T03:20:07;4.30;99.90
9223;DHT22;7557;51.698;3.942;2024-01-15T03:22:52;4.30;99.90
9223;DHT22;7557;51.698;3.942;2024-01-15T03:25:37;4.30;99.90
9223;DHT22;7557;51.698;3.942;2024-01-15T03:28:22;4.30;99.90
9223;DHT22;7557;51.698;3.942;2024-01-15T03:31:09;4.30;99.90
9223;DHT22;7557;51.698;3.942;2024-01-15T03:33:54;4.20;99.90
9223;DHT22;7557;51.698;3.942;2024-01-15T03:36:40;4.20;99.90
9223;DHT22;7557;51.698;3.942;2024-01-15T03:39:25;4.20;99.90
9223;DHT22;7557;51.698;3.942;2024-01-15T03:42:13;4.20;99.90
9223;DHT22;7557;51.698;3.942;2024-01-15T03:44:57;4.10;99.90
9223;DHT22;7557;51.698;3.942;2024-01-15T03:47:44;4.00;99.90
9223;DHT22;7557;51.698;3.942;2024-01-15T03:50:28;3.80;99.90
9223;DHT22;7557;51.698;3.942;2024-01-15T03:53:13;3.50;99.90
9223;DHT22;7557;51.698;3.942;2024-01-15T03:55:58;3.30;99.90
9223;DHT22;7557;51.698;3.942;2024-01-15T03:58:43;3.30;99.90
9223;DHT22;7557;51.698;3.942;2024-01-15T04:01:29;3.30;99.90
9223;DHT22;7557;51.698;3.942;2024-01-15T04:03:59;3.30;99.90
9223;DHT22;7557;51.698;3.942;2024-01-15T04:06:26;3.40;99.90
9223;DHT22;7557;51.698;3.942;2024-01-15T04:08:54;3.50;99.90
9223;DHT22;7557;51.698;3.942;2024-01-15T04:11:21;3.50;99.90
9223;DHT22;7557;51.698;3.942;2024-01-15T04:13:49;3.70;99.90
9223;DHT22;7557;51.698;3.942;2024-01-15T04:16:17;3.70;99.90
9223;DHT22;7557;51.698;3.942;2024-01-15T04:18:44;3.70;99.90
9223;DHT22;7557;51.698;3.942;2024-01-15T04:21:13;3.80;99.90
9223;DHT22;7557;51.698;3.942;2024-01-15T04:23:41;3.80;99.90
9223;DHT22;7557;51.698;3.942;2024-01-15T04:26:08;3.80;99.90
9223;DHT22;7557;51.698;3.942;2024-01-15T04:28:36;3.80;99.90
9223;DHT22;7557;51.698;3.942;2024-01-15T04:31:03;3.90;99.90
9223;DHT22;7557;51.698;3.942;2024-01-15T04:33:31;3.90;99.90
9223;DHT22;7557;51.698;3.942;2024-01-15T04:36:02;3.90;99.90
9223;DHT22;7557;51.698;3.942;2024-01-15T04:38:32;3.90;99.90
9223;DHT22;7557;51.698;3.942;2024-01-15T04:41:02;3.90;99.90
9223;DHT22;7557;51.698;3.942;2024-01-15T04:43:29;3.90;99.90
9223;DHT22;7557;51.698;3.942;2024-01-15T04:45:57;4.00;99.90
9223;DHT22;7557;51.698;3.942;2024-01-15T04:48:25;4.00;99.90
9223;DHT22;7557;51.698;3.942;2024-01-15T04:50:52;4.00;99.90
9223;DHT22;7557;51.698;3.942;2024-01-15T04:53:19;4.00;99.90
9223;DHT22;7557;51.698;3.942;2024-01-15T04:55:48;4.00;99.90
9223;DHT22;7557;51.698;3.942;2024-01-15T04:58:15;3.90;99.90
9223;DHT22;7557;51.698;3.942;2024-01-15T05:00:43;3.90;99.90
9223;DHT22;7557;51.698;3.942;2024-01-15T05:03:10;3.90;99.90
9223;DHT22;7557;51.698;3.942;2024-01-15T05:05:38;3.90;99.90
9223;DHT22;7557;51.698;3.942;2024-01-15T05:08:06;4.00;99.90
9223;DHT22;7557;51.698;3.942;2024-01-15T05:10:33;3.90;99.90
9223;DHT22;7557;51.698;3.942;2024-01-15T05:13:03;3.80;99.90
9223;DHT22;7557;51.698;3.942;2024-01-15T05:15:30;3.80;99.90
9223;DHT22;7557;51.698;3.942;2024-01-15T05:17:58;3.60;99.90
9223;DHT22;7557;51.698;3.942;2024-01-15T05:20:25;3.40;99.90
9223;DHT22;7557;51.698;3.942;2024-01-15T05:22:55;3.30;99.90
9223;DHT22;7557;51.698;3.942;2024-01-15T05:25:26;3.10;99.90
9223;DHT22;7557;51.698;3.942;2024-01-15T05:27:53;3.00;99.90
9223;DHT22;7557;51.698;3.942;2024-01-15T05:30:22;2.90;99.90
9223;DHT22;7557;51.698;3.942;2024-01-15T05:32:49;3.00;99.90
9223;DHT22;7557;51.698;3.942;2024-01-15T05:35:18;3.00;99.90
9223;DHT22;7557;51.698;3.942;2024-01-15T05:37:45;3.10;99.90
9223;DHT22;7557;51.698;3.942;2024-01-15T05:40:13;3.10;99.90
9223;DHT22;7557;51.698;3.942;2024-01-15T05:42:41;3.00;99.90
9223;DHT22;7557;51.698;3.942;2024-01-15T05:45:09;3.00;99.90
9223;DHT22;7557;51.698;3.942;2024-01-15T05:47:38;2.90;99.90
9223;DHT22;7557;51.698;3.942;2024-01-15T05:50:06;3.00;99.90
9223;DHT22;7557;51.698;3.942;2024-01-15T05:52:34;3.00;99.90
9223;DHT22;7557;51.698;3.942;2024-01-15T05:55:02;3.10;99.90
9223;DHT22;7557;51.698;3.942;2024-01-15T05:57:29;3.30;99.90
9223;DHT22;7557;51.698;3.942;2024-01-15T05:59:57;3.40;99.90
9223;DHT22;7557;51.698;3.942;2024-01-15T06:02:24;3.40;99.90
9223;DHT22;7557;51.698;3.942;2024-01-15T06:04:53;3.50;99.90
9223;DHT22;7557;51.698;3.942;2024-01-15T06:07:22;3.60;99.90
9223;DHT22;7557;51.698;3.942;2024-01-15T06:09:50;3.70;99.90
9223;DHT22;7557;51.698;3.942;2024-01-15T06:12:17;3.80;99.90
9223;DHT22;7557;51.698;3.942;2024-01-15T06:14:45;3.90;99.90
9223;DHT22;7557;51.698;3.942;2024-01-15T06:17:13;3.90;99.90
9223;DHT22;7557;51.698;3.942;2024-01-15T06:19:40;4.00;99.90
9223;DHT22;7557;51.698;3.942;2024-01-15T06:22:09;4.10;99.90
9223;DHT22;7557;51.698;3.942;2024-01-15T06:24:37;4.20;99.90
9223;DHT22;7557;51.698;3.942;2024-01-15T06:27:04;4.20;99.90
9223;DHT22;7557;51.698;3.942;2024-01-15T06:29:32;4.20;99.90
9223;DHT22;7557;51.698;3.942;2024-01-15T06:31:59;4.30;99.90
9223;DHT22;7557;51.698;3.942;2024-01-15T06:34:27;4.30;99.90
9223;DHT22;7557;51.698;3.942;2024-01-15T06:36:56;4.30;99.90
9223;DHT22;7557;51.698;3.942;2024-01-15T06:39:25;4.30;99.90
9223;DHT22;7557;51.698;3.942;2024-01-15T06:41:52;4.30;99.90
9223;DHT22;7557;51.698;3.942;2024-01-15T06:44:21;4.30;99.90
9223;DHT22;7557;51.698;3.942;2024-01-15T06:46:48;4.30;99.90
9223;DHT22;7557;51.698;3.942;2024-01-15T06:49:17;4.30;99.90
9223;DHT22;7557;51.698;3.942;2024-01-15T06:51:45;4.30;99.90
9223;DHT22;7557;51.698;3.942;2024-01-15T06:54:12;4.30;99.90
9223;DHT22;7557;51.698;3.942;2024-01-15T06:56:41;4.30;99.90
9223;DHT22;7557;51.698;3.942;2024-01-15T06:59:08;4.30;99.90
9223;DHT22;7557;51.698;3.942;2024-01-15T07:01:36;4.30;99.90
9223;DHT22;7557;51.698;3.942;2024-01-15T07:04:04;4.30;99.90
9223;DHT22;7557;51.698;3.942;2024-01-15T07:06:31;4.30;99.90
9223;DHT22;7557;51.698;3.942;2024-01-15T07:08:58;4.30;99.90
9223;DHT22;7557;51.698;3.942;2024-01-15T07:11:26;4.30;99.90
9223;DHT22;7557;51.698;3.942;2024-01-15T07:13:55;4.30;99.90
9223;DHT22;7557;51.698;3.942;2024-01-15T07:16:22;4.30;99.90
9223;DHT22;7557;51.698;3.942;2024-01-15T07:18:50;4.40;99.90
9223;DHT22;7557;51.698;3.942;2024-01-15T07:21:17;4.30;99.90
9223;DHT22;7557;51.698;3.942;2024-01-15T07:23:45;4.40;99.90
9223;DHT22;7557;51.698;3.942;2024-01-15T07:26:12;4.40;99.90
9223;DHT22;7557;51.698;3.942;2024-01-15T07:28:39;4.40;99.90
9223;DHT22;7557;51.698;3.942;2024-01-15T07:31:08;4.30;99.90
9223;DHT22;7557;51.698;3.942;2024-01-15T07:33:36;4.30;99.90
9223;DHT22;7557;51.698;3.942;2024-01-15T07:36:04;4.30;99.90
9223;DHT22;7557;51.698;3.942;2024-01-15T07:38:32;4.30;99.90
9223;DHT22;7557;51.698;3.942;2024-01-15T07:40:59;4.20;99.90
9223;DHT22;7557;51.698;3.942;2024-01-15T07:43:27;4.20;99.90
9223;DHT22;7557;51.698;3.942;2024-01-15T07:45:54;4.20;99.90
9223;DHT22;7557;51.698;3.942;2024-01-15T07:48:25;4.20;99.90
9223;DHT22;7557;51.698;3.942;2024-01-15T07:50:52;4.20;99.90
9223;DHT22;7557;51.698;3.942;2024-01-15T07:53:19;4.30;99.90
9223;DHT22;7557;51.698;3.942;2024-01-15T07:55:47;4.20;99.90
9223;DHT22;7557;51.698;3.942;2024-01-15T07:58:14;4.30;99.90
9223;DHT22;7557;51.698;3.942;2024-01-15T08:00:41;4.20;99.90
9223;DHT22;7557;51.698;3.942;2024-01-15T08:03:09;4.20;99.90
9223;DHT22;7557;51.698;3.942;2024-01-15T08:05:38;4.10;99.90
9223;DHT22;7557;51.698;3.942;2024-01-15T08:08:06;4.10;99.90
9223;DHT22;7557;51.698;3.942;2024-01-15T08:10:33;4.10;99.90
9223;DHT22;7557;51.698;3.942;2024-01-15T08:13:00;4.10;99.90
9223;DHT22;7557;51.698;3.942;2024-01-15T08:15:28;4.10;99.90
9223;DHT22;7557;51.698;3.942;2024-01-15T08:17:55;4.10;99.90
9223;DHT22;7557;51.698;3.942;2024-01-15T08:20:24;4.10;99.90
9223;DHT22;7557;51.698;3.942;2024-01-15T08:22:53;4.00;99.90
9223;DHT22;7557;51.698;3.942;2024-01-15T08:25:20;3.90;99.90
9223;DHT22;7557;51.698;3.942;2024-01-15T08:27:48;3.70;99.90
9223;DHT22;7557;51.698;3.942;2024-01-15T08:30:17;3.70;99.90
9223;DHT22;7557;51.698;3.942;2024-01-15T08:32:46;3.70;99.90
9223;DHT22;7557;51.698;3.942;2024-01-15T08:35:13;3.70;99.90
9223;DHT22;7557;51.698;3.942;2024-01-15T08:37:41;3.70;99.90
9223;DHT22;7557;51.698;3.942;2024-01-15T08:40:11;3.70;99.90
9223;DHT22;7557;51.698;3.942;2024-01-15T08:42:39;3.70;99.90
9223;DHT22;7557;51.698;3.942;2024-01-15T08:45:07;3.80;99.90
9223;DHT22;7557;51.698;3.942;2024-01-15T08:47:35;3.80;99.90
9223;DHT22;7557;51.698;3.942;2024-01-15T08:50:03;3.70;99.90
9223;DHT22;7557;51.698;3.942;2024-01-15T08:52:30;3.60;99.90
9223;DHT22;7557;51.698;3.942;2024-01-15T08:54:58;3.40;99.90
9223;DHT22;7557;51.698;3.942;2024-01-15T08:57:28;3.00;99.90
9223;DHT22;7557;51.698;3.942;2024-01-15T08:59:56;2.80;99.90
9223;DHT22;7557;51.698;3.942;2024-01-15T09:02:24;2.70;99.90
9223;DHT22;7557;51.698;3.942;2024-01-15T09:04:52;2.70;99.90
9223;DHT22;7557;51.698;3.942;2024-01-15T09:07:19;2.70;99.90
9223;DHT22;7557;51.698;3.942;2024-01-15T09:09:47;2.80;99.90
9223;DHT22;7557;51.698;3.942;2024-01-15T09:12:14;2.90;99.90
9223;DHT22;7557;51.698;3.942;2024-01-15T09:14:45;3.00;99.90
9223;DHT22;7557;51.698;3.942;2024-01-15T09:17:13;3.10;99.90
9223;DHT22;7557;51.698;3.942;2024-01-15T09:19:40;3.30;99.90
9223;DHT22;7557;51.698;3.942;2024-01-15T09:22:08;3.40;99.90
9223;DHT22;7557;51.698;3.942;2024-01-15T09:24:36;3.50;99.90
9223;DHT22;7557;51.698;3.942;2024-01-15T09:27:03;3.60;99.90
9223;DHT22;7557;51.698;3.942;2024-01-15T09:29:31;3.70;99.90
9223;DHT22;7557;51.698;3.942;2024-01-15T09:32:00;3.80;99.90
9223;DHT22;7557;51.698;3.942;2024-01-15T09:34:29;3.90;99.90
9223;DHT22;7557;51.698;3.942;2024-01-15T09:36:56;3.90;99.90
9223;DHT22;7557;51.698;3.942;2024-01-15T09:39:25;3.70;99.90
9223;DHT22;7557;51.698;3.942;2024-01-15T09:41:53;3.60;99.90
9223;DHT22;7557;51.698;3.942;2024-01-15T09:44:21;3.50;99.90
9223;DHT22;7557;51.698;3.942;2024-01-15T09:46:49;3.50;99.90
9223;DHT22;7557;51.698;3.942;2024-01-15T09:49:20;3.50;99.90
9223;DHT22;7557;51.698;3.942;2024-01-15T09:51:47;3.60;99.90
9223;DHT22;7557;51.698;3.942;2024-01-15T09:54:15;3.60;99.90
9223;DHT22;7557;51.698;3.942;2024-01-15T09:56:45;3.70;99.90
9223;DHT22;7557;51.698;3.942;2024-01-15T09:59:15;3.80;99.90
9223;DHT22;7557;51.698;3.942;2024-01-15T10:01:43;3.80;99.90
9223;DHT22;7557;51.698;3.942;2024-01-15T10:04:11;3.70;99.90
9223;DHT22;7557;51.698;3.942;2024-01-15T10:06:44;3.50;99.90
9223;DHT22;7557;51.698;3.942;2024-01-15T10:09:13;3.40;99.90
9223;DHT22;7557;51.698;3.942;2024-01-15T10:11:41;3.40;99.90
9223;DHT22;7557;51.698;3.942;2024-01-15T10:14:09;3.30;99.90
9223;DHT22;7557;51.698;3.942;2024-01-15T10:16:38;3.10;99.90
9223;DHT22;7557;51.698;3.942;2024-01-15T10:19:06;2.90;99.90
9223;DHT22;7557;51.698;3.942;2024-01-15T10:21:34;2.80;99.90
9223;DHT22;7557;51.698;3.942;2024-01-15T10:24:03;2.70;99.90
9223;DHT22;7557;51.698;3.942;2024-01-15T10:26:31;2.70;99.90
9223;DHT22;7557;51.698;3.942;2024-01-15T10:28:59;2.60;99.90
9223;DHT22;7557;51.698;3.942;2024-01-15T10:31:27;2.70;99.90
9223;DHT22;7557;51.698;3.942;2024-01-15T10:33:55;2.80;99.90
9223;DHT22;7557;51.698;3.942;2024-01-15T10:36:39;3.00;99.90
9223;DHT22;7557;51.698;3.942;2024-01-15T10:39:09;3.10;99.90
9223;DHT22;7557;51.698;3.942;2024-01-15T10:41:38;3.30;99.90
9223;DHT22;7557;51.698;3.942;2024-01-15T10:44:05;3.40;99.90
9223;DHT22;7557;51.698;3.942;2024-01-15T10:46:34;3.50;99.90
9223;DHT22;7557;51.698;3.942;2024-01-15T10:49:02;3.60;99.90
9223;DHT22;7557;51.698;3.942;2024-01-15T10:51:30;3.60;99.90
9223;DHT22;7557;51.698;3.942;2024-01-15T10:53:59;3.70;99.90
9223;DHT22;7557;51.698;3.942;2024-01-15T10:56:30;3.80;99.90
9223;DHT22;7557;51.698;3.942;2024-01-15T10:58:59;3.60;99.90
9223;DHT22;7557;51.698;3.942;2024-01-15T11:01:27;3.20;99.90
9223;DHT22;7557;51.698;3.942;2024-01-15T11:03:55;2.80;99.90
9223;DHT22;7557;51.698;3.942;2024-01-15T11:06:24;2.60;99.90
9223;DHT22;7557;51.698;3.942;2024-01-15T11:08:52;2.40;99.90
9223;DHT22;7557;51.698;3.942;2024-01-15T11:11:21;2.30;99.90
9223;DHT22;7557;51.698;3.942;2024-01-15T11:13:50;2.40;99.90
9223;DHT22;7557;51.698;3.942;2024-01-15T11:16:18;2.50;99.90
9223;DHT22;7557;51.698;3.942;2024-01-15T11:19:01;2.70;99.90
9223;DHT22;7557;51.698;3.942;2024-01-15T11:21:29;3.00;99.90
9223;DHT22;7557;51.698;3.942;2024-01-15T11:23:58;3.20;99.90
9223;DHT22;7557;51.698;3.942;2024-01-15T11:26:34;3.40;99.90
9223;DHT22;7557;51.698;3.942;2024-01-15T11:29:04;3.40;99.90
9223;DHT22;7557;51.698;3.942;2024-01-15T11:34:54;3.50;99.90
9223;DHT22;7557;51.698;3.942;2024-01-15T11:37:25;3.50;99.90
9223;DHT22;7557;51.698;3.942;2024-01-15T11:39:53;3.60;99.90
9223;DHT22;7557;51.698;3.942;2024-01-15T11:42:22;3.70;99.90
9223;DHT22;7557;51.698;3.942;2024-01-15T11:44:51;3.80;99.90
9223;DHT22;7557;51.698;3.942;2024-01-15T11:50:17;3.90;99.90
9223;DHT22;7557;51.698;3.942;2024-01-15T11:52:50;3.50;99.90
9223;DHT22;7557;51.698;3.942;2024-01-15T11:55:27;3.10;99.90
9223;DHT22;7557;51.698;3.942;2024-01-15T11:57:55;2.90;99.90
9223;DHT22;7557;51.698;3.942;2024-01-15T12:00:26;2.90;99.90
9223;DHT22;7557;51.698;3.942;2024-01-15T12:02:53;2.90;99.90
9223;DHT22;7557;51.698;3.942;2024-01-15T12:05:22;2.90;99.90
9223;DHT22;7557;51.698;3.942;2024-01-15T12:07:50;2.70;99.90
9223;DHT22;7557;51.698;3.942;2024-01-15T12:10:19;2.60;99.90
9223;DHT22;7557;51.698;3.942;2024-01-15T12:12:58;2.50;99.90
9223;DHT22;7557;51.698;3.942;2024-01-15T12:15:29;2.40;99.90
9223;DHT22;7557;51.698;3.942;2024-01-15T12:17:58;2.40;99.90
9223;DHT22;7557;51.698;3.942;2024-01-15T12:20:26;2.40;99.90
9223;DHT22;7557;51.698;3.942;2024-01-15T12:22:54;2.50;99.90
9223;DHT22;7557;51.698;3.942;2024-01-15T12:25:22;2.70;99.90
9223;DHT22;7557;51.698;3.942;2024-01-15T12:27:50;2.90;99.90
9223;DHT22;7557;51.698;3.942;2024-01-15T12:30:18;3.00;99.90
9223;DHT22;7557;51.698;3.942;2024-01-15T12:32:48;3.10;99.90
9223;DHT22;7557;51.698;3.942;2024-01-15T12:35:15;3.20;99.90
9223;DHT22;7557;51.698;3.942;2024-01-15T12:37:43;3.00;99.90
9223;DHT22;7557;51.698;3.942;2024-01-15T12:40:19;2.80;99.90
9223;DHT22;7557;51.698;3.942;2024-01-15T12:42:46;2.70;99.90
9223;DHT22;7557;51.698;3.942;2024-01-15T12:45:14;2.60;99.90
9223;DHT22;7557;51.698;3.942;2024-01-15T12:47:42;2.60;99.90
9223;DHT22;7557;51.698;3.942;2024-01-15T12:50:13;2.70;99.90
9223;DHT22;7557;51.698;3.942;2024-01-15T12:52:41;2.80;99.90
9223;DHT22;7557;51.698;3.942;2024-01-15T12:55:09;2.90;99.90
9223;DHT22;7557;51.698;3.942;2024-01-15T12:57:37;3.00;99.90
9223;DHT22;7557;51.698;3.942;2024-01-15T13:00:05;3.10;99.90
9223;DHT22;7557;51.698;3.942;2024-01-15T13:02:37;3.20;99.90
9223;DHT22;7557;51.698;3.942;2024-01-15T13:05:04;3.20;99.90
9223;DHT22;7557;51.698;3.942;2024-01-15T13:07:34;3.30;99.90
9223;DHT22;7557;51.698;3.942;2024-01-15T13:10:02;3.30;99.90
9223;DHT22;7557;51.698;3.942;2024-01-15T13:12:30;3.40;99.90
9223;DHT22;7557;51.698;3.942;2024-01-15T13:14:59;3.50;99.90
9223;DHT22;7557;51.698;3.942;2024-01-15T13:17:29;3.50;99.90
9223;DHT22;7557;51.698;3.942;2024-01-15T13:19:57;3.60;99.90
9223;DHT22;7557;51.698;3.942;2024-01-15T13:22:24;3.60;99.90
9223;DHT22;7557;51.698;3.942;2024-01-15T13:24:59;3.70;99.90
9223;DHT22;7557;51.698;3.942;2024-01-15T13:27:26;3.90;99.90
9223;DHT22;7557;51.698;3.942;2024-01-15T13:29:54;4.00;99.90
9223;DHT22;7557;51.698;3.942;2024-01-15T13:32:24;4.10;99.90
9223;DHT22;7557;51.698;3.942;2024-01-15T13:34:52;4.00;99.90
9223;DHT22;7557;51.698;3.942;2024-01-15T13:37:20;3.90;99.90
9223;DHT22;7557;51.698;3.942;2024-01-15T13:39:49;3.90;99.90
9223;DHT22;7557;51.698;3.942;2024-01-15T13:42:19;4.00;99.90
9223;DHT22;7557;51.698;3.942;2024-01-15T13:44:47;4.20;99.90
9223;DHT22;7557;51.698;3.942;2024-01-15T13:47:15;4.40;99.90
9223;DHT22;7557;51.698;3.942;2024-01-15T13:49:42;4.50;99.90
9223;DHT22;7557;51.698;3.942;2024-01-15T13:52:10;4.60;99.90
9223;DHT22;7557;51.698;3.942;2024-01-15T13:54:38;4.80;99.90
9223;DHT22;7557;51.698;3.942;2024-01-15T13:57:06;4.90;99.90
9223;DHT22;7557;51.698;3.942;2024-01-15T13:59:35;4.90;99.90
9223;DHT22;7557;51.698;3.942;2024-01-15T14:02:03;4.80;99.90
9223;DHT22;7557;51.698;3.942;2024-01-15T14:04:30;4.70;99.90
9223;DHT22;7557;51.698;3.942;2024-01-15T14:06:58;4.70;99.90
9223;DHT22;7557;51.698;3.942;2024-01-15T14:09:25;4.60;99.90
9223;DHT22;7557;51.698;3.942;2024-01-15T14:11:53;4.60;99.90
9223;DHT22;7557;51.698;3.942;2024-01-15T14:14:21;4.60;99.90
9223;DHT22;7557;51.698;3.942;2024-01-15T14:16:50;4.50;99.90
9223;DHT22;7557;51.698;3.942;2024-01-15T14:19:17;4.60;99.90
9223;DHT22;7557;51.698;3.942;2024-01-15T14:21:46;4.60;99.90
9223;DHT22;7557;51.698;3.942;2024-01-15T14:24:13;4.60;99.90
9223;DHT22;7557;51.698;3.942;2024-01-15T14:26:42;4.60;99.90
9223;DHT22;7557;51.698;3.942;2024-01-15T14:29:09;4.60;99.90
9223;DHT22;7557;51.698;3.942;2024-01-15T14:31:36;4.60;99.90
9223;DHT22;7557;51.698;3.942;2024-01-15T14:34:05;4.60;99.90
9223;DHT22;7557;51.698;3.942;2024-01-15T14:36:33;4.70;99.90
9223;DHT22;7557;51.698;3.942;2024-01-15T14:39:01;4.70;99.90
9223;DHT22;7557;51.698;3.942;2024-01-15T14:41:28;4.80;99.90
9223;DHT22;7557;51.698;3.942;2024-01-15T14:43:59;4.80;99.90
9223;DHT22;7557;51.698;3.942;2024-01-15T14:46:26;4.70;99.90
9223;DHT22;7557;51.698;3.942;2024-01-15T14:48:55;4.70;99.90
9223;DHT22;7557;51.698;3.942;2024-01-15T14:51:25;4.60;99.90
9223;DHT22;7557;51.698;3.942;2024-01-15T14:53:52;4.50;99.90
9223;DHT22;7557;51.698;3.942;2024-01-15T14:56:20;4.40;99.90
9223;DHT22;7557;51.698;3.942;2024-01-15T14:58:48;4.30;99.90
9223;DHT22;7557;51.698;3.942;2024-01-15T15:01:17;4.40;99.90
9223;DHT22;7557;51.698;3.942;2024-01-15T15:03:44;4.30;99.90
9223;DHT22;7557;51.698;3.942;2024-01-15T15:06:15;4.30;99.90
9223;DHT22;7557;51.698;3.942;2024-01-15T15:08:44;4.30;99.90
9223;DHT22;7557;51.698;3.942;2024-01-15T15:11:12;4.30;99.90
9223;DHT22;7557;51.698;3.942;2024-01-15T15:13:40;4.30;99.90
9223;DHT22;7557;51.698;3.942;2024-01-15T15:16:07;4.20;99.90
9223;DHT22;7557;51.698;3.942;2024-01-15T15:18:35;4.20;99.90
9223;DHT22;7557;51.698;3.942;2024-01-15T15:21:02;4.20;99.90
9223;DHT22;7557;51.698;3.942;2024-01-15T15:23:30;4.20;99.90
9223;DHT22;7557;51.698;3.942;2024-01-15T15:26:02;4.10;99.90
9223;DHT22;7557;51.698;3.942;2024-01-15T15:28:29;4.10;99.90
9223;DHT22;7557;51.698;3.942;2024-01-15T15:30:57;4.10;99.90
9223;DHT22;7557;51.698;3.942;2024-01-15T15:33:31;4.10;99.90
9223;DHT22;7557;51.698;3.942;2024-01-15T15:35:58;4.10;99.90
9223;DHT22;7557;51.698;3.942;2024-01-15T15:38:30;4.10;99.90
9223;DHT22;7557;51.698;3.942;2024-01-15T15:41:06;4.10;99.90
9223;DHT22;7557;51.698;3.942;2024-01-15T15:43:34;4.00;99.90
9223;DHT22;7557;51.698;3.942;2024-01-15T15:46:04;3.90;99.90
9223;DHT22;7557;51.698;3.942;2024-01-15T15:48:33;3.80;99.90
9223;DHT22;7557;51.698;3.942;2024-01-15T15:51:01;3.70;99.90
9223;DHT22;7557;51.698;3.942;2024-01-15T15:53:30;3.80;99.90
9223;DHT22;7557;51.698;3.942;2024-01-15T15:56:03;3.80;99.90
9223;DHT22;7557;51.698;3.942;2024-01-15T15:58:30;3.80;99.90
9223;DHT22;7557;51.698;3.942;2024-01-15T16:00:58;3.90;99.90
9223;DHT22;7557;51.698;3.942;2024-01-15T16:03:27;3.90;99.90
9223;DHT22;7557;51.698;3.942;2024-01-15T16:05:56;3.90;99.90
9223;DHT22;7557;51.698;3.942;2024-01-15T16:08:24;3.90;99.90
9223;DHT22;7557;51.698;3.942;2024-01-15T16:10:53;3.90;99.90
9223;DHT22;7557;51.698;3.942;2024-01-15T16:13:25;3.90;99.90
9223;DHT22;7557;51.698;3.942;2024-01-15T16:15:57;3.80;99.90
9223;DHT22;7557;51.698;3.942;2024-01-15T16:18:27;3.80;99.90
9223;DHT22;7557;51.698;3.942;2024-01-15T16:20:56;3.80;99.90
9223;DHT22;7557;51.698;3.942;2024-01-15T16:23:24;3.80;99.90
9223;DHT22;7557;51.698;3.942;2024-01-15T16:25:52;3.70;99.90
9223;DHT22;7557;51.698;3.942;2024-01-15T16:28:19;3.80;99.90
9223;DHT22;7557;51.698;3.942;2024-01-15T16:30:54;3.80;99.90
9223;DHT22;7557;51.698;3.942;2024-01-15T16:33:22;3.80;99.90
9223;DHT22;7557;51.698;3.942;2024-01-15T16:35:56;3.90;99.90